createdAt,value
2022-07-30T00:01:47.421Z,78.20
2022-07-30T00:04:14.308Z,78.10
2022-07-30T00:06:41.016Z,78.20
2022-07-30T00:09:07.973Z,78.20
2022-07-30T00:11:34.987Z,78.30
2022-07-30T00:14:02.224Z,78.80
2022-07-30T00:16:29.245Z,78.60
2022-07-30T00:18:56.496Z,78.40
2022-07-30T00:21:35.681Z,78.30
2022-07-30T00:24:04.458Z,78.20
2022-07-30T00:26:31.582Z,78.10
2022-07-30T00:28:58.456Z,78.10
2022-07-30T00:31:25.179Z,78.00
2022-07-30T00:33:52.137Z,78.10
2022-07-30T00:36:18.988Z,78.20
2022-07-30T00:38:45.896Z,78.40
2022-07-30T00:41:13.017Z,78.30
2022-07-30T00:43:43.429Z,78.60
2022-07-30T00:46:15.032Z,79.20
2022-07-30T00:48:42.678Z,79.60
2022-07-30T00:51:09.987Z,79.60
2022-07-30T00:53:37.258Z,79.50
2022-07-30T00:56:04.402Z,79.60
2022-07-30T00:58:31.299Z,79.90
2022-07-30T01:00:58.095Z,79.70
2022-07-30T01:03:24.926Z,79.70
2022-07-30T01:05:51.757Z,79.60
2022-07-30T01:08:18.532Z,79.40
2022-07-30T01:10:45.337Z,79.40
2022-07-30T01:13:13.053Z,79.30
2022-07-30T01:15:41.393Z,79.30
2022-07-30T01:18:12.509Z,79.30
2022-07-30T01:21:12.294Z,79.40
2022-07-30T01:23:44.631Z,79.70
2022-07-30T01:26:14.368Z,79.60
2022-07-30T01:28:45.050Z,79.60
2022-07-30T01:31:13.738Z,79.50
2022-07-30T01:33:44.009Z,79.70
2022-07-30T01:36:14.185Z,80.00
2022-07-30T01:38:44.613Z,80.40
2022-07-30T01:41:13.520Z,80.40
2022-07-30T01:43:41.829Z,80.30
2022-07-30T01:46:09.961Z,80.10
2022-07-30T01:48:41.007Z,80.10
2022-07-30T01:51:12.855Z,80.10
2022-07-30T01:53:44.596Z,80.20
2022-07-30T01:56:16.867Z,80.40
2022-07-30T01:58:46.379Z,80.30
2022-07-30T02:01:24.965Z,80.40
2022-07-30T02:03:58.218Z,80.30
2022-07-30T02:06:37.233Z,80.40
2022-07-30T02:09:11.092Z,80.70
2022-07-30T02:12:03.963Z,81.10
2022-07-30T02:14:56.396Z,81.10
2022-07-30T02:17:39.898Z,81.10
2022-07-30T02:20:16.178Z,81.00
2022-07-30T02:22:46.434Z,80.80
2022-07-30T02:25:18.790Z,80.90
2022-07-30T02:27:49.066Z,81.00
2022-07-30T02:30:16.789Z,80.90
2022-07-30T02:32:44.820Z,81.10
2022-07-30T02:35:17.206Z,81.30
2022-07-30T02:37:47.068Z,81.50
2022-07-30T02:40:17.185Z,81.70
2022-07-30T02:42:46.306Z,81.40
2022-07-30T02:45:19.471Z,81.60
2022-07-30T02:47:54.662Z,81.70
2022-07-30T02:50:24.466Z,81.90
2022-07-30T02:52:53.044Z,82.00
2022-07-30T02:55:21.488Z,81.60
2022-07-30T02:57:50.699Z,81.50
2022-07-30T03:00:18.039Z,82.00
2022-07-30T03:02:46.126Z,82.30
2022-07-30T03:05:15.693Z,82.30
2022-07-30T03:07:44.290Z,82.10
2022-07-30T03:10:13.003Z,81.80
2022-07-30T03:12:44.121Z,81.30
2022-07-30T03:15:12.876Z,81.20
2022-07-30T03:17:43.631Z,81.20
2022-07-30T03:20:17.314Z,81.10
2022-07-30T03:22:48.192Z,81.00
2022-07-30T03:25:18.201Z,81.20
2022-07-30T03:27:46.615Z,81.10
2022-07-30T03:30:14.213Z,80.90
2022-07-30T03:32:42.883Z,81.00
2022-07-30T03:35:17.070Z,81.10
2022-07-30T03:37:48.178Z,81.00
2022-07-30T03:40:15.805Z,81.00
2022-07-30T03:42:43.445Z,81.10
2022-07-30T03:45:13.649Z,81.00
2022-07-30T03:47:43.035Z,81.00
2022-07-30T03:50:12.461Z,81.00
2022-07-30T03:52:41.282Z,80.90
2022-07-30T03:55:11.928Z,81.30
2022-07-30T03:57:38.925Z,81.50
2022-07-30T04:00:14.678Z,81.60
2022-07-30T04:02:47.219Z,82.00
2022-07-30T04:05:18.399Z,82.40
2022-07-30T04:07:49.549Z,82.20
2022-07-30T04:10:19.731Z,82.10
2022-07-30T04:12:58.509Z,81.80
2022-07-30T04:16:37.797Z,81.70
2022-07-30T04:18:15.552Z,81.70
2022-07-30T04:20:44.690Z,81.70
2022-07-30T04:23:12.575Z,82.20
2022-07-30T04:25:43.719Z,82.50
2022-07-30T04:28:11.841Z,82.40
2022-07-30T04:30:39.041Z,82.40
2022-07-30T04:33:05.932Z,82.20
2022-07-30T04:35:51.239Z,82.10
2022-07-30T04:38:39.302Z,82.10
2022-07-30T04:41:06.069Z,82.30
2022-07-30T04:43:52.735Z,82.40
2022-07-30T04:46:21.016Z,82.50
2022-07-30T04:48:51.989Z,82.40
2022-07-30T04:51:25.435Z,82.00
2022-07-30T04:53:54.672Z,82.10
2022-07-30T04:56:22.970Z,82.20
2022-07-30T04:58:51.972Z,82.10
2022-07-30T05:01:37.175Z,82.10
2022-07-30T05:04:10.225Z,82.30
2022-07-30T05:06:37.894Z,82.50
2022-07-30T05:09:04.786Z,82.60
2022-07-30T05:11:32.425Z,82.50
2022-07-30T05:13:59.295Z,82.40
2022-07-30T05:16:26.433Z,82.40
2022-07-30T05:18:55.668Z,82.40
2022-07-30T05:21:22.954Z,82.90
2022-07-30T05:23:50.693Z,83.00
2022-07-30T05:26:27.523Z,83.00
2022-07-30T05:28:56.924Z,83.00
2022-07-30T05:31:33.635Z,82.90
2022-07-30T05:34:03.485Z,82.70
2022-07-30T05:36:39.994Z,82.60
2022-07-30T05:39:07.179Z,82.40
2022-07-30T05:41:52.894Z,82.30
2022-07-30T05:44:26.881Z,82.40
2022-07-30T05:46:53.653Z,82.40
2022-07-30T05:49:20.666Z,82.50
2022-07-30T05:51:47.476Z,82.30
2022-07-30T05:54:17.872Z,82.30
2022-07-30T05:57:03.478Z,82.30
2022-07-30T05:59:36.757Z,82.20
2022-07-30T06:02:19.170Z,82.20
2022-07-30T06:05:10.895Z,82.10
2022-07-30T06:07:37.869Z,82.00
2022-07-30T06:10:06.203Z,81.70
2022-07-30T06:12:32.986Z,81.40
2022-07-30T06:14:59.920Z,81.30
2022-07-30T06:17:39.750Z,81.30
2022-07-30T06:20:19.837Z,81.10
2022-07-30T06:23:06.840Z,81.00
2022-07-30T06:25:50.180Z,81.00
2022-07-30T06:31:15.179Z,80.70
2022-07-30T06:33:43.149Z,80.50
2022-07-30T06:36:13.734Z,80.40
2022-07-30T06:39:13.868Z,80.30
2022-07-30T06:41:53.997Z,80.10
2022-07-30T06:44:20.898Z,79.80
2022-07-30T06:47:08.208Z,79.80
2022-07-30T06:49:37.972Z,79.40
2022-07-30T06:52:06.770Z,79.40
2022-07-30T06:54:33.711Z,79.20
2022-07-30T06:57:16.321Z,79.00
2022-07-30T06:59:55.985Z,78.60
2022-07-30T07:02:39.307Z,78.50
2022-07-30T07:05:13.716Z,78.40
2022-07-30T07:07:56.525Z,78.00
2022-07-30T07:10:25.474Z,77.80
2022-07-30T07:13:04.437Z,77.50
2022-07-30T07:15:36.943Z,77.70
2022-07-30T07:18:06.601Z,77.30
2022-07-30T07:20:38.941Z,77.30
2022-07-30T07:23:09.458Z,76.90
2022-07-30T07:25:40.503Z,76.30
2022-07-30T07:28:12.460Z,76.10
2022-07-30T07:30:43.294Z,75.60
2022-07-30T07:33:10.927Z,75.70
2022-07-30T07:35:48.457Z,75.60
2022-07-30T07:38:20.632Z,75.10
2022-07-30T07:40:57.682Z,74.70
2022-07-30T07:43:25.247Z,74.60
2022-07-30T07:45:54.496Z,74.30
2022-07-30T07:48:21.508Z,74.10
2022-07-30T07:51:14.642Z,73.90
2022-07-30T07:53:41.365Z,74.00
2022-07-30T07:56:08.622Z,73.60
2022-07-30T07:58:36.105Z,73.50
2022-07-30T08:01:05.276Z,73.30
2022-07-30T08:03:57.903Z,73.00
2022-07-30T08:06:43.462Z,72.90
2022-07-30T08:09:43.889Z,72.80
2022-07-30T08:12:17.870Z,72.10
2022-07-30T08:14:53.651Z,71.80
2022-07-30T08:17:48.222Z,71.60
2022-07-30T08:20:19.931Z,71.10
2022-07-30T08:22:47.432Z,70.50
2022-07-30T08:25:22.543Z,70.40
2022-07-30T08:27:52.559Z,70.00
2022-07-30T08:30:20.445Z,69.00
2022-07-30T08:32:47.637Z,69.20
2022-07-30T08:35:14.574Z,69.30
2022-07-30T08:37:42.273Z,68.90
2022-07-30T08:40:12.370Z,68.70
2022-07-30T08:42:51.077Z,68.50
2022-07-30T08:45:18.714Z,68.90
2022-07-30T08:47:47.875Z,68.50
2022-07-30T08:50:21.562Z,68.00
2022-07-30T08:53:06.510Z,67.70
2022-07-30T08:55:33.760Z,67.60
2022-07-30T08:58:00.636Z,67.70
2022-07-30T09:00:28.391Z,67.70
2022-07-30T09:02:57.154Z,67.50
2022-07-30T09:05:25.279Z,66.20
2022-07-30T09:07:52.091Z,66.20
2022-07-30T09:10:27.956Z,66.50
2022-07-30T09:13:00.503Z,67.10
2022-07-30T09:15:28.536Z,66.10
2022-07-30T09:18:00.512Z,65.70
2022-07-30T09:20:35.058Z,66.00
2022-07-30T09:23:06.607Z,65.60
2022-07-30T09:25:55.080Z,66.10
2022-07-30T09:28:42.923Z,66.40
2022-07-30T09:34:30.359Z,65.00
2022-07-30T09:37:02.805Z,65.50
2022-07-30T09:39:59.329Z,64.60
2022-07-30T09:42:45.814Z,64.80
2022-07-30T09:45:18.836Z,63.30
2022-07-30T09:47:50.382Z,63.40
2022-07-30T09:50:30.227Z,63.60
2022-07-30T09:53:08.896Z,63.50
2022-07-30T09:55:41.490Z,64.10
2022-07-30T09:58:12.814Z,64.40
2022-07-30T10:00:44.302Z,64.80
2022-07-30T10:03:44.032Z,63.70
2022-07-30T10:06:42.721Z,63.00
2022-07-30T10:09:37.312Z,62.70
2022-07-30T10:12:06.314Z,63.30
2022-07-30T10:14:42.721Z,63.50
2022-07-30T10:17:12.880Z,63.20
2022-07-30T10:19:41.777Z,63.40
2022-07-30T10:22:47.998Z,63.50
2022-07-30T10:25:35.293Z,62.90
2022-07-30T10:28:30.067Z,62.50
2022-07-30T10:31:15.320Z,63.00
2022-07-30T10:33:56.476Z,63.20
2022-07-30T10:36:36.285Z,62.60
2022-07-30T10:39:05.813Z,62.10
2022-07-30T10:41:48.172Z,62.90
2022-07-30T10:45:18.804Z,63.20
2022-07-30T10:47:50.736Z,63.90
2022-07-30T10:50:22.565Z,64.30
2022-07-30T10:53:06.337Z,63.30
2022-07-30T10:55:38.700Z,62.70
2022-07-30T10:58:17.969Z,63.40
2022-07-30T11:00:52.802Z,62.70
2022-07-30T11:03:23.680Z,61.60
2022-07-30T11:06:16.967Z,60.80
2022-07-30T11:08:51.519Z,60.90
2022-07-30T11:12:01.623Z,61.10
2022-07-30T11:14:08.902Z,61.20
2022-07-30T11:16:37.599Z,60.30
2022-07-30T11:19:55.189Z,60.60
2022-07-30T11:22:26.245Z,60.40
2022-07-30T11:24:54.698Z,61.00
2022-07-30T11:27:45.749Z,60.50
2022-07-30T11:30:17.322Z,60.60
2022-07-30T11:32:45.164Z,60.10
2022-07-30T11:35:26.271Z,60.60
2022-07-30T11:38:15.681Z,60.40
2022-07-30T11:40:45.848Z,59.90
2022-07-30T11:43:35.301Z,59.50
2022-07-30T11:46:06.359Z,59.10
2022-07-30T11:48:34.217Z,58.90
2022-07-30T11:51:03.960Z,59.20
2022-07-30T11:53:31.245Z,58.80
2022-07-30T11:56:00.610Z,59.10
2022-07-30T11:58:35.823Z,59.20
2022-07-30T12:01:16.754Z,59.00
2022-07-30T12:03:45.623Z,59.10
2022-07-30T12:06:17.988Z,59.30
2022-07-30T12:08:46.557Z,59.20
2022-07-30T12:11:13.646Z,59.30
2022-07-30T12:13:46.000Z,59.00
2022-07-30T12:16:17.488Z,58.70
2022-07-30T12:18:45.812Z,58.20
2022-07-30T12:21:13.734Z,58.80
2022-07-30T12:23:43.258Z,58.50
2022-07-30T12:26:24.600Z,59.10
2022-07-30T12:28:55.048Z,58.90
2022-07-30T12:31:22.476Z,58.00
2022-07-30T12:33:49.230Z,57.80
2022-07-30T12:36:34.871Z,57.80
2022-07-30T12:39:03.501Z,57.60
2022-07-30T12:41:56.986Z,57.40
2022-07-30T12:44:44.632Z,57.30
2022-07-30T12:47:25.828Z,57.80
2022-07-30T12:50:01.449Z,58.30
2022-07-30T12:52:37.717Z,57.50
2022-07-30T12:55:12.458Z,57.80
2022-07-30T12:58:07.147Z,57.90
2022-07-30T13:00:49.450Z,57.90
2022-07-30T13:03:39.394Z,57.70
2022-07-30T13:06:19.895Z,57.70
2022-07-30T13:08:57.708Z,57.50
2022-07-30T13:11:41.735Z,57.30
2022-07-30T13:14:17.108Z,58.30
2022-07-30T13:16:44.159Z,59.40
2022-07-30T13:19:11.938Z,58.60
2022-07-30T13:21:41.017Z,58.50
2022-07-30T13:24:18.147Z,58.50
2022-07-30T13:26:47.942Z,58.50
2022-07-30T13:29:18.190Z,58.70
2022-07-30T13:31:45.503Z,58.10
2022-07-30T13:34:12.860Z,57.90
2022-07-30T13:36:40.373Z,58.00
2022-07-30T13:39:11.946Z,57.10
2022-07-30T13:41:41.772Z,57.00
2022-07-30T13:44:08.791Z,56.80
2022-07-30T13:46:36.177Z,56.40
2022-07-30T13:49:09.731Z,56.20
2022-07-30T13:51:40.278Z,56.80
2022-07-30T13:54:08.217Z,56.40
2022-07-30T13:56:40.735Z,57.10
2022-07-30T13:59:10.149Z,57.20
2022-07-30T14:01:38.173Z,56.80
2022-07-30T14:04:05.947Z,57.00
2022-07-30T14:06:32.763Z,56.40
2022-07-30T14:08:59.710Z,56.80
2022-07-30T14:11:26.610Z,57.00
2022-07-30T14:13:53.816Z,56.80
2022-07-30T14:16:43.526Z,57.20
2022-07-30T14:19:08.251Z,57.30
2022-07-30T14:21:50.373Z,56.90
2022-07-30T14:24:19.368Z,57.40
2022-07-30T14:26:46.504Z,57.40
2022-07-30T14:29:13.339Z,56.90
2022-07-30T14:31:40.644Z,57.10
2022-07-30T14:34:07.543Z,57.30
2022-07-30T14:36:35.261Z,57.40
2022-07-30T14:39:04.155Z,57.60
2022-07-30T14:41:32.231Z,58.90
2022-07-30T14:43:59.026Z,57.70
2022-07-30T14:46:25.756Z,57.60
2022-07-30T14:48:52.594Z,57.40
2022-07-30T14:51:25.535Z,57.40
2022-07-30T14:53:52.843Z,57.30
2022-07-30T14:56:26.369Z,57.50
2022-07-30T14:58:54.267Z,57.40
2022-07-30T15:01:21.444Z,57.20
2022-07-30T15:03:48.362Z,57.30
2022-07-30T15:06:15.568Z,57.70
2022-07-30T15:08:43.161Z,57.50
2022-07-30T15:11:09.984Z,57.20
2022-07-30T15:13:38.581Z,57.70
2022-07-30T15:16:16.772Z,57.90
2022-07-30T15:18:43.531Z,57.30
2022-07-30T15:21:10.454Z,57.00
2022-07-30T15:23:37.229Z,57.40
2022-07-30T15:26:04.227Z,57.90
2022-07-30T15:28:31.056Z,57.60
2022-07-30T15:30:58.196Z,56.70
2022-07-30T15:33:24.932Z,57.70
2022-07-30T15:35:51.784Z,57.20
2022-07-30T15:38:18.810Z,57.50
2022-07-30T15:40:48.104Z,57.30
2022-07-30T15:43:17.784Z,57.40
2022-07-30T15:45:55.803Z,57.00
2022-07-30T15:48:27.764Z,57.30
2022-07-30T15:51:05.763Z,56.40
2022-07-30T15:53:33.273Z,57.50
2022-07-30T15:56:00.418Z,57.40
2022-07-30T15:58:27.491Z,57.20
2022-07-30T16:00:54.285Z,57.70
2022-07-30T16:03:21.099Z,58.10
2022-07-30T16:05:52.278Z,57.90
2022-07-30T16:08:20.721Z,57.60
2022-07-30T16:10:48.170Z,56.90
2022-07-30T16:13:15.302Z,57.10
2022-07-30T16:15:42.043Z,57.10
2022-07-30T16:18:09.043Z,57.90
2022-07-30T16:20:35.761Z,57.60
2022-07-30T16:23:02.537Z,57.70
2022-07-30T16:25:29.266Z,57.40
2022-07-30T16:27:56.071Z,56.80
2022-07-30T16:30:24.331Z,57.10
2022-07-30T16:32:56.362Z,57.10
2022-07-30T16:35:23.474Z,58.00
2022-07-30T16:37:50.277Z,57.70
2022-07-30T16:40:17.119Z,57.30
2022-07-30T16:42:43.835Z,57.00
2022-07-30T16:45:11.032Z,56.20
2022-07-30T16:47:37.722Z,57.70
2022-07-30T16:50:04.907Z,57.00
2022-07-30T16:52:31.649Z,56.70
2022-07-30T16:54:58.394Z,57.80
2022-07-30T16:57:25.092Z,55.40
2022-07-30T16:59:51.866Z,55.40
2022-07-30T17:02:18.701Z,55.40
2022-07-30T17:04:45.490Z,55.40
2022-07-30T17:07:12.299Z,54.70
2022-07-30T17:09:39.059Z,56.60
2022-07-30T17:12:12.023Z,56.70
2022-07-30T17:14:40.901Z,56.10
2022-07-30T17:17:13.453Z,55.80
2022-07-30T17:19:41.353Z,57.10
2022-07-30T17:22:08.429Z,57.10
2022-07-30T17:24:35.361Z,56.40
2022-07-30T17:27:02.522Z,56.10
2022-07-30T17:29:29.729Z,56.80
2022-07-30T17:31:56.468Z,56.30
2022-07-30T17:34:23.299Z,55.90
2022-07-30T17:36:52.252Z,57.40
2022-07-30T17:40:26.588Z,56.60
2022-07-30T17:42:09.407Z,57.80
2022-07-30T17:44:36.674Z,56.90
2022-07-30T17:47:03.613Z,57.30
2022-07-30T17:49:31.001Z,56.90
2022-07-30T17:51:57.956Z,57.40
2022-07-30T17:54:25.014Z,57.40
2022-07-30T17:56:51.866Z,57.00
2022-07-30T17:59:18.971Z,57.60
2022-07-30T18:01:45.937Z,57.30
2022-07-30T18:04:12.662Z,57.00
2022-07-30T18:06:39.564Z,57.50
2022-07-30T18:09:06.496Z,58.00
2022-07-30T18:11:33.323Z,58.10
2022-07-30T18:14:00.144Z,58.00
2022-07-30T18:16:26.926Z,57.90
2022-07-30T18:18:53.623Z,58.80
2022-07-30T18:21:20.639Z,58.50
2022-07-30T18:23:47.376Z,58.50
2022-07-30T18:26:15.402Z,58.70
2022-07-30T18:28:42.403Z,59.10
2022-07-30T18:31:09.436Z,59.30
2022-07-30T18:33:36.319Z,59.60
2022-07-30T18:36:03.176Z,59.40
2022-07-30T18:38:29.919Z,59.20
2022-07-30T18:40:59.429Z,59.80
2022-07-30T18:43:30.583Z,59.80
2022-07-30T18:46:00.253Z,59.80
2022-07-30T18:48:26.966Z,59.90
2022-07-30T18:50:53.695Z,59.90
2022-07-30T18:53:20.824Z,59.90
2022-07-30T18:55:47.582Z,60.30
2022-07-30T18:58:14.379Z,60.00
2022-07-30T19:00:43.969Z,60.40
2022-07-30T19:03:16.467Z,60.20
2022-07-30T19:05:46.377Z,60.40
2022-07-30T19:08:13.086Z,60.50
2022-07-30T19:10:43.670Z,60.50
2022-07-30T19:13:10.426Z,60.70
2022-07-30T19:15:37.225Z,60.90
2022-07-30T19:18:04.029Z,60.90
2022-07-30T19:20:31.171Z,61.00
2022-07-30T19:23:02.575Z,61.30
2022-07-30T19:25:30.610Z,61.50
2022-07-30T19:27:57.359Z,61.50
2022-07-30T19:30:24.450Z,61.80
2022-07-30T19:32:51.292Z,62.10
2022-07-30T19:35:18.309Z,62.10
2022-07-30T19:37:45.000Z,62.30
2022-07-30T19:40:12.742Z,62.30
2022-07-30T19:42:41.488Z,62.30
2022-07-30T19:45:11.430Z,62.20
2022-07-30T19:47:39.637Z,62.20
2022-07-30T19:50:08.071Z,62.40
2022-07-30T19:52:39.325Z,62.50
2022-07-30T19:55:17.274Z,62.40
2022-07-30T19:58:00.295Z,62.40
2022-07-30T20:00:27.005Z,62.60
2022-07-30T20:02:56.768Z,62.50
2022-07-30T20:05:25.113Z,62.40
2022-07-30T20:07:52.111Z,62.30
2022-07-30T20:10:19.433Z,62.50
2022-07-30T20:12:49.068Z,62.60
2022-07-30T20:15:16.518Z,62.60
2022-07-30T20:17:43.360Z,62.80
2022-07-30T20:20:13.607Z,63.10
2022-07-30T20:22:41.001Z,63.40
2022-07-30T20:25:08.870Z,63.80
2022-07-30T20:27:38.674Z,63.80
2022-07-30T20:30:08.351Z,63.90
2022-07-30T20:35:29.140Z,63.80
2022-07-30T20:37:56.445Z,63.90
2022-07-30T20:40:26.719Z,64.10
2022-07-30T20:43:11.661Z,64.10
2022-07-30T20:45:41.331Z,64.20
2022-07-30T20:48:08.529Z,64.30
2022-07-30T20:50:46.009Z,64.20
2022-07-30T20:53:16.085Z,64.50
2022-07-30T20:55:42.878Z,64.60
2022-07-30T20:58:17.286Z,64.50
2022-07-30T21:00:49.527Z,64.70
2022-07-30T21:03:18.016Z,64.70
2022-07-30T21:05:46.518Z,65.10
2022-07-30T21:08:14.176Z,65.30
2022-07-30T21:10:41.176Z,65.60
2022-07-30T21:13:11.364Z,65.50
2022-07-30T21:15:45.204Z,65.30
2022-07-30T21:18:12.775Z,65.30
2022-07-30T21:20:39.601Z,65.30
2022-07-30T21:23:10.044Z,65.20
2022-07-30T21:28:27.990Z,65.30
2022-07-30T21:30:57.258Z,65.40
2022-07-30T21:33:24.321Z,65.50
2022-07-30T21:35:57.743Z,65.70
2022-07-30T21:38:26.368Z,65.80
2022-07-30T21:40:53.300Z,65.80
2022-07-30T21:43:29.567Z,66.00
2022-07-30T21:45:58.505Z,66.00
2022-07-30T21:48:26.728Z,65.90
2022-07-30T21:50:55.191Z,65.70
2022-07-30T21:53:30.022Z,65.90
2022-07-30T21:56:10.058Z,65.90
2022-07-30T21:58:38.767Z,65.90
2022-07-30T22:01:16.296Z,65.90
2022-07-30T22:04:03.579Z,66.10
2022-07-30T22:06:31.335Z,66.30
2022-07-30T22:08:58.097Z,66.80
2022-07-30T22:11:25.429Z,66.90
2022-07-30T22:14:10.236Z,67.00
2022-07-30T22:16:38.240Z,67.20
2022-07-30T22:19:12.761Z,67.50
2022-07-30T22:21:41.692Z,67.50
2022-07-30T22:24:08.532Z,67.60
2022-07-30T22:26:35.315Z,67.70
2022-07-30T22:29:02.422Z,67.70
2022-07-30T22:31:30.953Z,67.80
2022-07-30T22:34:11.448Z,67.90
2022-07-30T22:36:38.430Z,68.00
2022-07-30T22:39:08.899Z,68.20
2022-07-30T22:41:35.757Z,68.30
2022-07-30T22:44:03.656Z,68.30
2022-07-30T22:46:31.805Z,68.50
2022-07-30T22:48:59.399Z,68.60
2022-07-30T22:51:58.655Z,68.60
2022-07-30T22:54:13.719Z,68.80
2022-07-30T22:56:41.696Z,69.00
2022-07-30T22:59:12.906Z,69.10
2022-07-30T23:01:43.657Z,69.30
2022-07-30T23:04:10.606Z,69.40
2022-07-30T23:06:37.386Z,69.60
2022-07-30T23:09:07.858Z,69.60
2022-07-30T23:11:38.729Z,69.80
2022-07-30T23:12:18.143Z,63.80
2022-07-30T23:12:27.228Z,65.20
2022-07-30T23:14:06.604Z,69.90
2022-07-30T23:16:33.299Z,70.00
2022-07-30T23:19:00.123Z,70.30
2022-07-30T23:21:27.205Z,70.50
2022-07-30T23:23:54.401Z,70.60
2022-07-30T23:26:21.150Z,70.70
2022-07-30T23:28:50.031Z,70.60
2022-07-30T23:31:16.913Z,70.60
2022-07-30T23:33:43.640Z,71.20
2022-07-30T23:36:11.030Z,71.50
2022-07-30T23:38:37.855Z,71.50
2022-07-30T23:41:05.664Z,71.60
2022-07-30T23:43:33.285Z,71.80
2022-07-30T23:46:00.224Z,71.70
2022-07-30T23:48:29.417Z,71.90
2022-07-30T23:50:56.137Z,71.90
2022-07-30T23:53:24.664Z,71.80
2022-07-30T23:55:51.831Z,71.70
2022-07-30T23:58:19.199Z,71.70
